createdAt,value
2023-02-14T12:08:39.633Z,102315.38
2023-02-14T12:14:53.881Z,102310.09
2023-02-14T12:17:33.099Z,102315.44
2023-02-14T12:20:09.916Z,102296.38
2023-02-14T12:22:44.715Z,102290.06
2023-02-14T12:25:18.332Z,102294.31
2023-02-14T12:27:51.723Z,102287.97
2023-02-14T12:30:22.034Z,102277.97
2023-02-14T12:32:51.809Z,102272.13
2023-02-14T12:35:29.232Z,102283.94
2023-02-14T12:38:08.588Z,102282.50
2023-02-14T12:40:51.108Z,102278.34
2023-02-14T12:43:34.322Z,102265.75
2023-02-14T12:46:21.004Z,102262.94
2023-02-14T12:49:05.091Z,102264.47
2023-02-14T12:51:41.140Z,102260.22
2023-02-14T12:54:37.280Z,102252.50
2023-02-14T12:57:25.099Z,102251.69
2023-02-14T13:00:04.388Z,102253.56
2023-02-14T13:03:13.438Z,102245.94
2023-02-14T13:05:54.968Z,102246.97
2023-02-14T13:08:40.545Z,102245.47
2023-02-14T13:11:19.534Z,102256.97
2023-02-14T13:14:04.499Z,102244.09
2023-02-14T13:16:39.177Z,102238.13
2023-02-14T13:19:16.870Z,102233.72
2023-02-14T13:21:46.327Z,102233.63
2023-02-14T13:24:19.613Z,102230.13
2023-02-14T13:26:53.919Z,102239.56
2023-02-14T13:29:25.780Z,102233.31
2023-02-14T13:32:03.407Z,102229.63
2023-02-14T13:34:54.899Z,102228.53
2023-02-14T13:37:33.738Z,102237.59
2023-02-14T13:42:57.867Z,102228.84
2023-02-14T13:46:06.921Z,102222.88
2023-02-14T13:48:38.947Z,102222.22
2023-02-14T13:51:09.639Z,102226.56
2023-02-14T13:53:43.481Z,102216.75
2023-02-14T13:56:35.262Z,102212.19
2023-02-14T13:59:06.425Z,102209.13
2023-02-14T14:01:42.946Z,102217.25
2023-02-14T14:04:36.753Z,102207.22
2023-02-14T14:07:23.428Z,102219.88
2023-02-14T14:10:12.392Z,102209.28
2023-02-14T14:12:42.336Z,102210.75
2023-02-14T14:15:19.185Z,102220.16
2023-02-14T14:17:50.756Z,102207.31
2023-02-14T14:20:49.049Z,102200.41
2023-02-14T14:23:37.228Z,102192.81
2023-02-14T14:26:32.244Z,102185.19
2023-02-14T14:29:00.548Z,102181.19
2023-02-14T14:31:29.865Z,102180.75
2023-02-14T14:34:02.324Z,102184.75
2023-02-14T14:36:31.713Z,102182.63
2023-02-14T14:38:59.791Z,102182.09
2023-02-14T14:42:08.576Z,102183.31
2023-02-14T14:44:52.036Z,102164.75
2023-02-14T14:47:29.180Z,102159.81
2023-02-14T14:50:49.256Z,102163.47
2023-02-14T14:53:52.924Z,102163.50
2023-02-14T14:59:35.835Z,102155.78
2023-02-14T15:05:35.243Z,102161.50
2023-02-14T15:08:42.448Z,102152.66
2023-02-14T15:11:44.508Z,102151.47
2023-02-14T15:14:21.600Z,102144.16
2023-02-14T15:16:52.695Z,102149.03
2023-02-14T15:19:33.422Z,102153.09
2023-02-14T15:22:06.224Z,102158.97
2023-02-14T15:24:39.557Z,102156.13
2023-02-14T15:27:16.621Z,102159.38
2023-02-14T15:29:55.040Z,102146.38
2023-02-14T15:32:24.450Z,102152.25
2023-02-14T15:34:53.964Z,102149.59
2023-02-14T15:37:23.660Z,102149.75
2023-02-14T15:39:57.177Z,102150.56
2023-02-14T15:42:29.446Z,102148.03
2023-02-14T15:45:16.677Z,102136.72
2023-02-14T15:47:47.642Z,102138.44
2023-02-14T15:50:22.508Z,102140.25
2023-02-14T15:52:52.088Z,102133.25
2023-02-14T15:55:26.874Z,102133.16
2023-02-14T15:57:59.406Z,102127.09
2023-02-14T16:00:30.826Z,102128.06
2023-02-14T16:03:03.771Z,102129.06
2023-02-14T16:05:32.731Z,102125.81
2023-02-14T16:08:04.903Z,102124.19
2023-02-14T16:10:36.499Z,102126.94
2023-02-14T16:13:09.407Z,102121.13
2023-02-14T16:15:42.498Z,102130.22
2023-02-14T16:18:20.134Z,102131.47
2023-02-14T16:20:51.296Z,102130.47
2023-02-14T16:23:26.900Z,102127.63
2023-02-14T16:25:58.564Z,102122.19
2023-02-14T16:28:32.310Z,102121.13
2023-02-14T16:31:05.892Z,102117.97
2023-02-14T16:33:38.407Z,102111.22
2023-02-14T16:36:17.084Z,102102.69
2023-02-14T16:38:46.777Z,102108.72
2023-02-14T16:41:24.782Z,102124.34
2023-02-14T16:43:55.167Z,102114.16
2023-02-14T16:46:27.006Z,102117.00
2023-02-14T16:48:55.397Z,102107.72
2023-02-14T16:51:28.732Z,102118.34
2023-02-14T16:54:00.658Z,102113.50
2023-02-14T16:56:38.327Z,102120.78
2023-02-14T16:59:07.610Z,102109.22
2023-02-14T17:01:36.346Z,102107.97
2023-02-14T17:04:06.097Z,102118.94
2023-02-14T17:06:37.729Z,102099.50
2023-02-14T17:09:08.770Z,102103.47
2023-02-14T17:11:43.509Z,102106.44
2023-02-14T17:14:16.188Z,102103.66
2023-02-14T17:16:46.860Z,102110.19
2023-02-14T17:19:15.875Z,102115.06
2023-02-14T17:21:44.107Z,102114.00
2023-02-14T17:24:12.700Z,102110.22
2023-02-14T17:26:42.594Z,102107.47
2023-02-14T17:29:10.936Z,102110.66
2023-02-14T17:31:39.326Z,102107.00
2023-02-14T17:34:07.661Z,102101.66
2023-02-14T17:36:36.501Z,102106.59
2023-02-14T17:39:05.708Z,102113.38
2023-02-14T17:41:34.176Z,102113.38
2023-02-14T17:44:05.823Z,102122.00
2023-02-14T17:46:34.657Z,102113.31
2023-02-14T17:49:03.102Z,102121.09
2023-02-14T17:51:33.208Z,102127.97
2023-02-14T17:54:01.460Z,102136.56
2023-02-14T17:56:29.611Z,102133.94
2023-02-14T17:58:58.210Z,102132.22
2023-02-14T18:01:31.606Z,102137.31
2023-02-14T18:04:00.292Z,102138.13
2023-02-14T18:06:33.605Z,102138.06
2023-02-14T18:09:01.917Z,102139.84
2023-02-14T18:11:31.225Z,102135.44
2023-02-14T18:13:59.982Z,102134.47
2023-02-14T18:16:31.565Z,102141.09
2023-02-14T18:19:04.109Z,102130.69
2023-02-14T18:21:35.885Z,102125.38
2023-02-14T18:24:04.742Z,102124.38
2023-02-14T18:26:34.073Z,102131.06
2023-02-14T18:29:06.840Z,102133.59
2023-02-14T18:31:38.450Z,102135.16
2023-02-14T18:34:07.449Z,102133.28
2023-02-14T18:36:37.871Z,102135.00
2023-02-14T18:39:07.145Z,102127.22
2023-02-14T18:41:36.093Z,102119.47
2023-02-14T18:44:04.997Z,102122.72
2023-02-14T18:46:37.608Z,102116.34
2023-02-14T18:49:08.516Z,102122.50
2023-02-14T18:51:39.417Z,102108.75
2023-02-14T18:54:08.212Z,102113.97
2023-02-14T18:56:38.645Z,102117.28
2023-02-14T18:59:09.813Z,102105.38
2023-02-14T19:01:42.567Z,102103.72
2023-02-14T19:04:12.679Z,102105.22
2023-02-14T19:06:41.924Z,102105.38
2023-02-14T19:09:12.049Z,102106.25
2023-02-14T19:11:46.448Z,102111.41
2023-02-14T19:14:14.585Z,102111.41
2023-02-14T19:16:51.158Z,102104.47
2023-02-14T19:19:19.941Z,102093.38
2023-02-14T19:21:48.595Z,102092.72
2023-02-14T19:24:18.157Z,102090.94
2023-02-14T19:26:46.820Z,102096.22
2023-02-14T19:29:17.043Z,102092.09
2023-02-14T19:31:48.533Z,102087.13
2023-02-14T19:34:19.202Z,102085.72
2023-02-14T19:36:48.025Z,102082.56
2023-02-14T19:39:16.727Z,102079.38
2023-02-14T19:41:46.538Z,102071.63
2023-02-14T19:44:17.181Z,102077.00
2023-02-14T19:46:47.939Z,102082.91
2023-02-14T19:49:18.145Z,102085.47
2023-02-14T19:51:47.468Z,102086.19
2023-02-14T19:54:16.623Z,102080.84
2023-02-14T19:56:46.896Z,102082.50
2023-02-14T19:59:20.114Z,102077.03
2023-02-14T20:01:52.233Z,102090.56
2023-02-14T20:04:22.800Z,102083.56
2023-02-14T20:06:52.948Z,102090.19
2023-02-14T20:09:22.174Z,102089.19
2023-02-14T20:11:54.377Z,102096.00
2023-02-14T20:14:27.104Z,102102.66
2023-02-14T20:16:58.678Z,102093.91
2023-02-14T20:19:29.455Z,102091.28
2023-02-14T20:21:58.008Z,102097.16
2023-02-14T20:24:27.697Z,102091.13
2023-02-14T20:26:56.397Z,102085.19
2023-02-14T20:29:26.017Z,102085.97
2023-02-14T20:31:59.982Z,102087.75
2023-02-14T20:34:28.714Z,102086.69
2023-02-14T20:36:59.422Z,102077.06
2023-02-14T20:39:30.852Z,102075.28
2023-02-14T20:41:59.770Z,102077.00
2023-02-14T20:44:28.321Z,102074.47
2023-02-14T20:46:59.905Z,102056.47
2023-02-14T20:49:30.760Z,102046.25
2023-02-14T20:51:59.212Z,102054.78
2023-02-14T20:54:30.318Z,102063.31
2023-02-14T20:57:00.065Z,102058.31
2023-02-14T20:59:28.931Z,102059.19
2023-02-14T21:01:59.778Z,102053.03
2023-02-14T21:04:29.719Z,102046.25
2023-02-14T21:06:59.729Z,102053.03
2023-02-14T21:09:29.490Z,102050.50
2023-02-14T21:11:58.480Z,102051.25
2023-02-14T21:14:27.221Z,102048.69
2023-02-14T21:16:55.433Z,102051.25
2023-02-14T21:19:26.710Z,102039.94
2023-02-14T21:21:56.674Z,102041.50
2023-02-14T21:24:25.586Z,102035.44
2023-02-14T21:26:54.050Z,102014.88
2023-02-14T21:29:22.514Z,102019.19
2023-02-14T21:31:50.651Z,102015.69
2023-02-14T21:34:18.919Z,101998.34
2023-02-14T21:36:49.145Z,102001.53
2023-02-14T21:39:17.671Z,101999.69
2023-02-14T21:41:45.851Z,101992.66
2023-02-14T21:44:34.030Z,101988.31
2023-02-14T21:47:02.414Z,101997.66
2023-02-14T21:49:48.170Z,101983.63
2023-02-14T21:52:17.908Z,101992.09
2023-02-14T21:54:46.115Z,101993.09
2023-02-14T21:57:14.483Z,101988.78
2023-02-14T21:59:42.827Z,101992.94
2023-02-14T22:02:14.369Z,101992.84
2023-02-14T22:04:44.256Z,101993.78
2023-02-14T22:07:12.393Z,101992.16
2023-02-14T22:09:41.978Z,101996.47
2023-02-14T22:12:10.065Z,101995.63
2023-02-14T22:14:38.166Z,101995.75
2023-02-14T22:17:06.366Z,101997.50
2023-02-14T22:19:36.520Z,101993.84
2023-02-14T22:22:04.639Z,101996.38
2023-02-14T22:24:33.215Z,101992.84
2023-02-14T22:27:04.081Z,101971.03
2023-02-14T22:29:32.356Z,101977.84
2023-02-14T22:32:00.906Z,101970.94
2023-02-14T22:34:29.692Z,101970.75
2023-02-14T22:36:57.836Z,101966.69
2023-02-14T22:39:27.410Z,101967.75
2023-02-14T22:42:02.647Z,101959.19
2023-02-14T22:44:32.452Z,101960.84
2023-02-14T22:47:02.477Z,101950.56
2023-02-14T22:49:31.064Z,101955.66
2023-02-14T22:52:00.566Z,101953.16
2023-02-14T22:54:28.724Z,101940.97
2023-02-14T22:56:56.900Z,101941.94
2023-02-14T22:59:27.531Z,101942.00
2023-02-14T23:01:57.495Z,101943.69
2023-02-14T23:04:25.937Z,101941.25
2023-02-14T23:06:56.479Z,101943.97
2023-02-14T23:09:25.857Z,101939.78
2023-02-14T23:11:54.240Z,101947.69
2023-02-14T23:14:39.818Z,101941.06
2023-02-14T23:17:33.707Z,101938.53
2023-02-14T23:20:19.387Z,101938.44
2023-02-14T23:22:48.813Z,101938.28
2023-02-14T23:25:16.888Z,101936.50
2023-02-14T23:27:50.182Z,101936.38
2023-02-14T23:30:19.976Z,101930.28
2023-02-14T23:32:49.584Z,101928.59
2023-02-14T23:35:17.690Z,101917.56
2023-02-14T23:37:45.993Z,101920.06
2023-02-14T23:40:14.878Z,101914.91
2023-02-14T23:42:43.245Z,101914.88
2023-02-14T23:45:28.793Z,101896.97
2023-02-14T23:48:03.096Z,101904.03
2023-02-14T23:50:31.507Z,101889.41
2023-02-14T23:52:59.934Z,101888.59
2023-02-14T23:55:29.128Z,101886.13
2023-02-14T23:57:57.200Z,101883.44
